Quantico MCAF /Turner field
KNYG : now visible

Airfield :











YOU CAN JOIN US ON...

 
LOGIN :

Register | Disclaimer

   EN    FR    IT 

 









Legend :    VFR   Marginal VFR   IFR   Intensive IFR   Very Intensive IFR
Visi :
Ceiling :
>= 8 km
>= 3000ft
5 to 8 km
1000 to 3000 ft
1500m to 5 km
500 to 1000 ft
800 to 1500m
200 to 500 ft
< 800m
< 200 ft
Symbols :   Thunderstorms  Fog  Heavy snow  Heavy precipitations  Wind > 20 kt






- Airport Elevation : 10 ft


KNYG - Quantico MCAF /Turner field

CURRENT METAR :
  • 010156Z AUTO 30007KT 10SM CLR 12/06 A2951 RMK AO2 SLP995 T01220061 $

EXPIRED METARs :
  • 010056Z AUTO 24006KT 10SM CLR 14/07 A2947 RMK AO2 SLP981 T01390067
  • 302356Z AUTO 23008KT 10SM CLR 15/08 A2945 RMK AO2 SLP974 60001 T01500083 10189 20150 53029

TAF TAF KNYG
Valid from the 30 at 21:00 until the 01 at 21:00 UTC


3021/0121 24009G15KT 6000 RA BR STC040 BKN060 QNH2936INS
FM010200 22009KT 9999 BKN010 QNH2949INS
BECMG 0113/0115 24010G20KT 9999 BKN040 QNH2967INS T15/3021Z T04/0112Z
KZDC FIR / North America



MET'MAP, your aeronautical weather chart ! - Copyright ORBIFLY December 2007 - Disclaimer

ORBIFLY MET'MAP TEAM :

Programming & Development : Alexandra Zaïnal
Concept & original design : Baudouin d'Aumeries
Assistance for programming : Marc-Olivier Méhu
Technical & hardware support : Manuel Goepfert

Contact : metmap@orbifly.com




SOURCES & CREDITS :

   NOAA       Earth
Advisory